Yangon, Myanmar

7:05 AM MMT on February 01, 2015 (GMT +0630)
Yangon International | Change Station
CLOSE
Current Station
Airport
Location: Yangon,
Elevation: 108 ft
Nearby Weather Stations

Elev 108 ft 16.91 °N, 96.14 °E | Updated 35 minutes ago

Mist
Mist
70 °F
Feels Like 70 °F
N
2
Wind Variable Wind from NNE

Today
High -- | Low -- °F
--% Chance of Precip.
Yesterday
High -- | Low -- °F
Precip. -- in
6:36 AM 6:01 PM
Waxing Gibbous, 92% visible
Pressure 29.95 in
Visibility 2.5 miles
Clouds
Dew Point 68 °F
Humidity 94%
Rainfall 0.00 in
Snow Depth Not available.
UV Not available.
Pollen Not available.
Air Quality Not available.
Flu Activity Not available.
METAR VYYY 010000Z 03002KT 4000 R21/2000N BR NSC 21/20 Q1014 TEMPO 3000 BR

More Conditions Fewer Conditions

Pressure 29.95 in
Visibility 2.5 miles
Clouds
Dew Point 68 °F
Humidity 94%
Rainfall 0.00 in
Snow Depth Not available.
UV Not available.
Pollen Not available.
Air Quality Not available.
Flu Activity Not available.
METAR VYYY 010000Z 03002KT 4000 R21/2000N BR NSC 21/20 Q1014 TEMPO 3000 BR

More Conditions Fewer Conditions

10-Day Weather Forecast

Almanac

Astronomy

Feb. 01, 2015 Rise Set
Actual Time
Civil Twilight
Nautical Twilight
Astronomical Twilight
Moon
Length of Visible Light
Length of Day
Tomorrow will be .
, % of the Moon is Illuminated

Today's Extremes

Country Highs Country Lows

Community

WunderPhotos

Upload Photos

1,792,262 photos uploaded!

WunderBlogs® & News

Nearby

Air Quality

  Air Quality AQ Index Pollutant
Not available.

Snow Depth

Station Depth Elevation

Earthquake Activity

City Distance Mag. Time & Date
Minimum magnitude displayed is 2.5.

Coastal Water Temperatures

Place Temperature

Nearby Weather Stations